Time;durP1;ratioP1;P1;durP2;ratioP2;P2;SDS_P1;SDS_P2;PMS_P1;PMS_P2;Temp;Humidity;BMP_temperature;BMP_pressure;BME280_temperature;BME280_humidity;BME280_pressure;Samples;Min_cycle;Max_cycle;Signal;HPM_P1;HPM_P2
2021/09/11 00:01:23;;;;;;;15.38;10.13;;;14.50;90.60;;;;;;5074480;28;20032;-82
2021/09/11 00:03:49;;;;;;;15.80;9.20;;;14.40;90.70;;;;;;5074620;28;20079;-83
2021/09/11 00:06:15;;;;;;;12.80;9.95;;;14.30;90.90;;;;;;5074557;28;20548;-83
2021/09/11 00:08:41;;;;;;;11.45;9.20;;;14.30;90.80;;;;;;5074466;28;20448;-83
2021/09/11 00:11:06;;;;;;;16.95;11.02;;;14.30;90.70;;;;;;5074508;28;20041;-82
2021/09/11 00:13:32;;;;;;;12.77;10.23;;;14.30;90.60;;;;;;5074242;28;20438;-83
2021/09/11 00:15:58;;;;;;;16.27;10.45;;;14.30;90.60;;;;;;5073910;28;20029;-83
2021/09/11 00:18:25;;;;;;;16.73;10.77;;;14.20;90.60;;;;;;5074650;28;20045;-84
2021/09/11 00:20:51;;;;;;;16.55;11.25;;;14.20;90.70;;;;;;5076373;28;20017;-82
2021/09/11 00:23:17;;;;;;;12.73;11.20;;;14.20;90.70;;;;;;5074034;28;20106;-83
2021/09/11 00:25:43;;;;;;;21.33;11.32;;;14.20;90.90;;;;;;5078299;28;20024;-82
2021/09/11 00:28:08;;;;;;;17.48;11.60;;;14.20;90.80;;;;;;5076924;28;20028;-84
2021/09/11 00:30:34;;;;;;;15.30;10.35;;;14.10;90.80;;;;;;5079317;28;20025;-81
2021/09/11 00:33:01;;;;;;;16.70;11.45;;;14.10;90.90;;;;;;5078928;28;20470;-83
2021/09/11 00:35:26;;;;;;;15.90;10.93;;;14.10;91.10;;;;;;5078772;28;20047;-83
2021/09/11 00:37:52;;;;;;;18.42;12.65;;;14.10;91.30;;;;;;5079961;28;20016;-83
2021/09/11 00:40:18;;;;;;;16.33;11.68;;;14.10;91.30;;;;;;5077385;28;20021;-83
2021/09/11 00:42:47;;;;;;;18.27;11.38;;;14.10;91.30;;;;;;5072400;28;20092;-83
2021/09/11 00:45:15;;;;;;;19.08;12.02;;;14.10;91.30;;;;;;5074883;28;20040;-84
2021/09/11 00:47:41;;;;;;;18.40;12.02;;;14.10;91.50;;;;;;5073554;28;20021;-83
2021/09/11 00:50:09;;;;;;;20.77;12.40;;;14.10;91.50;;;;;;5074861;28;20023;-83
2021/09/11 00:52:34;;;;;;;;;;;14.10;91.30;;;;;;5056940;28;20021;-83
2021/09/11 00:55:00;;;;;;;16.67;12.73;;;14.10;91.20;;;;;;5073594;28;19911;-82
2021/09/11 00:57:27;;;;;;;18.77;12.55;;;14.10;91.30;;;;;;5073303;28;20111;-83
2021/09/11 00:59:53;;;;;;;15.17;12.27;;;14.00;91.50;;;;;;5073503;28;20074;-83
2021/09/11 01:02:19;;;;;;;19.13;12.40;;;14.00;91.50;;;;;;5055345;28;20012;-82
2021/09/11 01:04:45;;;;;;;16.23;12.75;;;14.00;91.50;;;;;;5073069;28;20013;-83
2021/09/11 01:07:11;;;;;;;18.05;12.90;;;14.00;91.60;;;;;;5070938;28;20363;-83
2021/09/11 01:09:37;;;;;;;19.80;13.73;;;14.00;91.50;;;;;;5073664;28;20070;-82
2021/09/11 01:12:03;;;;;;;20.05;14.05;;;14.00;91.60;;;;;;5079193;28;20480;-82
2021/09/11 01:14:29;;;;;;;16.77;13.45;;;14.00;91.60;;;;;;5072562;28;20085;-84
2021/09/11 01:16:54;;;;;;;20.20;14.73;;;14.00;91.60;;;;;;5062991;28;20070;-82
2021/09/11 01:19:20;;;;;;;15.77;11.70;;;14.00;91.60;;;;;;5098806;28;20497;-82
2021/09/11 01:21:46;;;;;;;15.85;12.18;;;14.00;91.60;;;;;;5093480;28;20012;-83
2021/09/11 01:24:12;;;;;;;20.25;13.43;;;13.90;91.60;;;;;;5093569;28;20032;-83
2021/09/11 01:26:38;;;;;;;19.80;13.38;;;13.90;91.70;;;;;;5107441;28;20028;-81
2021/09/11 01:29:07;;;;;;;21.98;14.73;;;13.90;91.70;;;;;;5094327;28;20038;-82
2021/09/11 01:31:34;;;;;;;24.58;15.77;;;13.90;91.90;;;;;;5079457;28;20044;-81
2021/09/11 01:34:00;;;;;;;17.52;13.52;;;13.90;91.90;;;;;;5093262;28;20056;-82
2021/09/11 01:36:28;;;;;;;21.23;14.07;;;13.90;91.80;;;;;;5092706;28;20030;-83
2021/09/11 01:38:53;;;;;;;21.08;13.63;;;13.80;91.90;;;;;;5093194;28;20059;-83
2021/09/11 01:41:19;;;;;;;20.05;13.50;;;13.80;91.90;;;;;;5092828;28;20450;-83
2021/09/11 01:43:45;;;;;;;18.88;12.73;;;13.80;92.00;;;;;;5107687;28;20091;-83
2021/09/11 01:46:11;;;;;;;19.00;12.63;;;13.70;92.10;;;;;;5093549;28;20028;-83
2021/09/11 01:48:37;;;;;;;21.48;14.02;;;13.70;92.10;;;;;;5078338;28;20024;-83
2021/09/11 01:51:02;;;;;;;17.67;13.65;;;13.70;92.20;;;;;;5092695;28;20090;-82
2021/09/11 01:53:28;;;;;;;21.27;13.93;;;13.60;92.20;;;;;;5092649;28;20400;-83
2021/09/11 01:55:54;;;;;;;22.92;15.15;;;13.50;92.40;;;;;;5092741;28;20031;-82
2021/09/11 01:58:20;;;;;;;19.38;13.85;;;13.50;92.70;;;;;;5092785;28;20035;-83
2021/09/11 02:00:46;;;;;;;20.90;13.32;;;13.50;93.00;;;;;;5092511;28;20385;-83
2021/09/11 02:03:12;;;;;;;22.55;14.00;;;13.40;93.20;;;;;;5092710;28;20102;-83
2021/09/11 02:05:38;;;;;;;20.13;15.52;;;13.40;93.30;;;;;;5092549;28;20035;-84
2021/09/11 02:08:04;;;;;;;24.35;15.90;;;13.30;93.40;;;;;;5084131;28;20017;-83
2021/09/11 02:10:30;;;;;;;18.55;13.57;;;13.40;93.50;;;;;;5086919;28;20497;-84
2021/09/11 02:12:55;;;;;;;18.25;13.73;;;13.30;93.50;;;;;;5092748;28;20030;-84
2021/09/11 02:15:21;;;;;;;20.15;13.88;;;13.40;93.60;;;;;;5093723;28;20073;-83
2021/09/11 02:17:47;;;;;;;26.13;14.35;;;13.40;93.50;;;;;;5094490;28;20067;-83
2021/09/11 02:20:13;;;;;;;18.92;13.20;;;13.40;93.50;;;;;;5092831;28;20024;-83
2021/09/11 02:22:39;;;;;;;21.05;14.10;;;13.30;93.60;;;;;;5080362;28;20106;-82
2021/09/11 02:25:06;;;;;;;21.00;14.32;;;13.30;93.60;;;;;;5079985;28;20016;-83
2021/09/11 02:27:32;;;;;;;20.00;13.98;;;13.20;93.60;;;;;;5080395;28;20086;-81
2021/09/11 02:29:57;;;;;;;20.73;14.98;;;13.20;93.70;;;;;;5080606;28;20103;-83
2021/09/11 02:32:23;;;;;;;15.68;13.25;;;13.10;93.80;;;;;;5081289;28;20043;-82
2021/09/11 02:34:49;;;;;;;16.92;13.80;;;13.10;93.90;;;;;;5082192;28;20114;-82
2021/09/11 02:37:15;;;;;;;17.83;14.00;;;13.00;94.00;;;;;;5082616;28;20111;-83
2021/09/11 02:39:44;;;;;;;19.67;14.48;;;13.00;94.10;;;;;;5080338;28;20039;-82
2021/09/11 02:42:11;;;;;;;17.33;14.32;;;12.90;94.30;;;;;;5080158;28;20017;-82
2021/09/11 02:44:37;;;;;;;18.13;14.27;;;12.80;94.50;;;;;;5087253;28;20021;-82
2021/09/11 02:47:03;;;;;;;17.40;14.60;;;12.70;94.70;;;;;;5083121;28;20033;-84
2021/09/11 02:49:29;;;;;;;23.55;15.35;;;12.70;94.90;;;;;;5078201;28;20017;-83
2021/09/11 02:51:55;;;;;;;23.23;14.20;;;12.60;95.10;;;;;;5079103;28;20024;-84
2021/09/11 02:54:22;;;;;;;20.67;15.70;;;12.60;95.30;;;;;;5079720;28;20115;-83
2021/09/11 02:56:48;;;;;;;18.80;13.93;;;12.50;95.40;;;;;;5079591;28;20217;-81
2021/09/11 02:59:14;;;;;;;22.00;16.17;;;12.50;95.60;;;;;;5079454;28;20074;-82
2021/09/11 03:01:40;;;;;;;20.40;15.57;;;12.50;95.80;;;;;;5078775;28;20033;-83
2021/09/11 03:04:05;;;;;;;23.02;15.07;;;12.40;96.00;;;;;;5078835;28;20089;-82
2021/09/11 03:06:31;;;;;;;19.92;15.90;;;12.40;96.10;;;;;;5078374;28;20048;-81
2021/09/11 03:08:58;;;;;;;20.95;16.05;;;12.40;96.20;;;;;;5078326;28;20013;-80
2021/09/11 03:11:24;;;;;;;24.33;17.65;;;12.40;96.40;;;;;;5079035;28;20496;-80
2021/09/11 03:13:49;;;;;;;21.83;16.10;;;12.40;96.50;;;;;;5080554;28;20033;-82
2021/09/11 03:16:15;;;;;;;20.55;15.48;;;12.30;96.50;;;;;;5077374;28;20031;-82
2021/09/11 03:18:41;;;;;;;22.90;16.75;;;12.40;96.80;;;;;;5076885;28;20052;-82
2021/09/11 03:21:07;;;;;;;21.02;16.58;;;12.40;96.60;;;;;;5078217;28;20028;-83
2021/09/11 03:23:33;;;;;;;20.40;16.67;;;12.40;96.60;;;;;;5078312;28;20028;-82
2021/09/11 03:25:58;;;;;;;20.65;16.00;;;12.40;96.60;;;;;;5077975;28;20382;-82
2021/09/11 03:28:24;;;;;;;21.35;17.05;;;12.40;96.60;;;;;;5078124;28;20103;-82
2021/09/11 03:30:50;;;;;;;20.35;16.60;;;12.50;96.60;;;;;;5075009;28;20031;-83
2021/09/11 03:33:17;;;;;;;21.88;16.83;;;12.50;96.90;;;;;;5076288;28;20073;-82
2021/09/11 03:35:43;;;;;;;23.38;15.73;;;12.60;96.60;;;;;;5075775;28;20020;-82
2021/09/11 03:38:08;;;;;;;20.35;16.42;;;12.60;96.50;;;;;;5074901;28;20517;-81
2021/09/11 03:40:34;;;;;;;20.27;16.52;;;12.60;96.50;;;;;;5074765;28;20129;-83
2021/09/11 03:43:00;;;;;;;24.13;16.90;;;12.70;96.50;;;;;;5074836;28;20024;-83
2021/09/11 03:45:26;;;;;;;22.45;16.35;;;12.70;96.40;;;;;;5074587;28;20036;-82
2021/09/11 03:47:52;;;;;;;23.15;17.02;;;12.70;96.40;;;;;;5073636;28;20028;-82
2021/09/11 03:50:17;;;;;;;19.63;16.13;;;12.80;96.30;;;;;;5076276;28;20044;-82
2021/09/11 03:52:43;;;;;;;18.73;16.17;;;12.90;96.20;;;;;;5074690;28;20103;-83
2021/09/11 03:55:09;;;;;;;17.60;15.70;;;13.00;96.00;;;;;;5074671;28;20367;-82
2021/09/11 03:57:35;;;;;;;20.10;16.73;;;13.10;95.80;;;;;;5075416;28;20153;-83
2021/09/11 04:00:01;;;;;;;20.13;15.80;;;13.10;95.70;;;;;;5074717;28;20489;-83
2021/09/11 04:02:27;;;;;;;17.83;15.30;;;13.20;95.50;;;;;;5075119;28;20377;-83
2021/09/11 04:04:53;;;;;;;20.10;15.10;;;13.30;95.30;;;;;;5061567;28;20018;-82
2021/09/11 04:07:19;;;;;;;19.90;14.93;;;13.40;95.20;;;;;;5073631;28;20512;-82
2021/09/11 04:09:44;;;;;;;16.77;14.07;;;13.50;95.10;;;;;;5069838;28;20520;-84
2021/09/11 04:12:10;;;;;;;21.27;14.45;;;13.70;95.10;;;;;;5071728;28;20472;-83
2021/09/11 04:14:36;;;;;;;14.95;13.45;;;13.90;95.00;;;;;;5074147;28;20012;-82
2021/09/11 04:17:02;;;;;;;21.05;14.13;;;14.30;94.40;;;;;;5074700;28;20462;-83
2021/09/11 04:19:28;;;;;;;15.95;12.25;;;14.80;93.50;;;;;;5094384;28;20465;-84
2021/09/11 04:21:54;;;;;;;16.73;13.98;;;15.30;92.10;;;;;;5094795;28;20073;-82
2021/09/11 04:24:19;;;;;;;15.70;12.88;;;15.90;90.70;;;;;;5095939;28;20035;-83
2021/09/11 04:26:46;;;;;;;16.38;12.13;;;16.50;89.00;;;;;;5094348;28;20114;-83
2021/09/11 04:29:12;;;;;;;16.50;11.88;;;17.10;86.00;;;;;;5076153;28;20477;-85
2021/09/11 04:31:37;;;;;;;16.02;11.65;;;17.50;82.90;;;;;;5094116;28;20091;-83
2021/09/11 04:34:03;;;;;;;14.40;11.15;;;17.70;80.90;;;;;;5094432;28;20028;-83
2021/09/11 04:36:29;;;;;;;12.73;11.45;;;17.70;79.90;;;;;;5094830;28;20022;-83
2021/09/11 04:38:55;;;;;;;17.73;12.52;;;17.60;80.00;;;;;;5094879;28;20020;-83
2021/09/11 04:41:21;;;;;;;12.77;10.68;;;17.40;79.90;;;;;;5093618;28;20077;-82
2021/09/11 04:43:46;;;;;;;12.13;10.43;;;17.20;80.00;;;;;;5075738;28;20024;-84
2021/09/11 04:46:12;;;;;;;12.73;11.43;;;16.90;80.30;;;;;;5062117;28;20037;-83
2021/09/11 04:48:38;;;;;;;14.15;10.50;;;16.70;81.30;;;;;;5093132;28;20028;-83
2021/09/11 04:51:04;;;;;;;13.40;11.20;;;16.50;81.80;;;;;;5094166;28;20035;-83
2021/09/11 04:53:29;;;;;;;16.05;11.25;;;16.40;82.20;;;;;;5090933;28;20501;-82
2021/09/11 04:55:55;;;;;;;13.27;11.57;;;16.30;82.50;;;;;;5083322;28;20112;-85
2021/09/11 04:58:21;;;;;;;13.68;10.25;;;16.30;82.50;;;;;;5094358;28;20055;-84
2021/09/11 05:00:47;;;;;;;15.43;10.60;;;16.30;82.30;;;;;;5094689;28;20032;-84
2021/09/11 05:03:13;;;;;;;13.35;11.82;;;16.10;82.50;;;;;;5095189;28;20039;-83
2021/09/11 05:05:38;;;;;;;15.57;11.10;;;15.90;82.90;;;;;;5096837;28;20035;-84
2021/09/11 05:08:04;;;;;;;15.32;11.95;;;16.10;83.50;;;;;;5094160;28;20028;-83
2021/09/11 05:10:30;;;;;;;16.27;11.45;;;16.10;82.70;;;;;;5084854;28;20074;-82
2021/09/11 05:12:56;;;;;;;17.48;11.45;;;15.80;83.00;;;;;;5054933;28;20110;-83
2021/09/11 05:15:22;;;;;;;19.88;12.13;;;15.70;83.90;;;;;;5093363;28;20389;-84
2021/09/11 05:17:48;;;;;;;14.75;10.65;;;15.70;84.40;;;;;;5093500;28;20044;-83
2021/09/11 05:20:14;;;;;;;15.45;12.40;;;15.90;84.50;;;;;;5095838;28;20142;-82
2021/09/11 05:22:40;;;;;;;17.27;12.02;;;16.10;84.00;;;;;;5084897;28;20024;-85
2021/09/11 05:25:09;;;;;;;19.73;11.77;;;16.30;83.60;;;;;;5094144;28;20056;-84
2021/09/11 05:27:35;;;;;;;16.25;11.50;;;16.40;83.10;;;;;;5075722;28;20031;-82
2021/09/11 05:30:02;;;;;;;16.45;11.27;;;16.40;82.90;;;;;;5075916;28;20019;-83
2021/09/11 05:32:27;;;;;;;19.97;12.20;;;16.50;82.50;;;;;;5094664;28;20044;-82
2021/09/11 05:34:53;;;;;;;15.15;10.98;;;16.60;82.20;;;;;;5066281;28;20024;-83
2021/09/11 05:37:19;;;;;;;18.08;12.23;;;16.80;81.80;;;;;;5094536;28;20074;-83
2021/09/11 05:39:45;;;;;;;18.63;11.55;;;16.90;81.20;;;;;;5073116;28;20020;-83
2021/09/11 05:42:11;;;;;;;15.98;10.80;;;17.10;80.50;;;;;;5081235;28;20047;-84
2021/09/11 05:44:38;;;;;;;14.50;10.50;;;17.30;79.80;;;;;;5088294;28;20016;-84
2021/09/11 05:47:04;;;;;;;14.23;11.52;;;17.30;78.80;;;;;;5092937;28;20059;-84
2021/09/11 05:49:30;;;;;;;15.32;10.85;;;17.20;78.90;;;;;;5062456;28;20385;-84
2021/09/11 05:51:55;;;;;;;14.00;10.32;;;17.20;79.40;;;;;;5078728;28;20024;-84
2021/09/11 05:54:21;;;;;;;13.48;9.80;;;17.20;78.90;;;;;;5081841;28;20024;-84
2021/09/11 05:56:47;;;;;;;18.27;11.32;;;17.20;79.40;;;;;;5063616;28;20123;-83
2021/09/11 05:59:13;;;;;;;15.73;11.55;;;17.30;79.40;;;;;;5083578;28;20020;-83
2021/09/11 06:01:41;;;;;;;15.05;10.82;;;17.30;79.00;;;;;;5061481;28;20120;-85
2021/09/11 06:04:07;;;;;;;17.20;12.10;;;17.20;79.00;;;;;;5085800;28;20430;-83
2021/09/11 06:06:33;;;;;;;16.13;10.52;;;17.20;79.30;;;;;;5079180;28;20091;-82
2021/09/11 06:08:59;;;;;;;18.52;12.10;;;17.30;79.20;;;;;;5083773;28;20039;-84
2021/09/11 06:11:25;;;;;;;14.80;10.23;;;17.20;79.50;;;;;;5081161;28;20021;-83
2021/09/11 06:13:50;;;;;;;13.88;10.88;;;17.20;79.20;;;;;;5079280;28;20152;-83
2021/09/11 06:16:16;;;;;;;21.20;10.70;;;17.20;79.60;;;;;;5091376;28;20473;-84
2021/09/11 06:18:42;;;;;;;15.73;11.38;;;17.30;80.00;;;;;;5092603;28;20400;-83
2021/09/11 06:21:08;;;;;;;20.67;12.57;;;17.50;79.40;;;;;;5093517;28;20054;-84
2021/09/11 06:23:34;;;;;;;18.77;11.48;;;17.60;79.20;;;;;;5076707;28;20470;-86
2021/09/11 06:26:00;;;;;;;22.17;12.40;;;17.80;78.40;;;;;;5082842;28;20040;-84
2021/09/11 06:28:26;;;;;;;16.73;11.10;;;17.90;78.30;;;;;;5079826;28;20020;-84
2021/09/11 06:30:53;;;;;;;18.75;10.30;;;17.90;77.80;;;;;;5092800;28;20039;-83
2021/09/11 06:33:19;;;;;;;17.47;11.10;;;17.90;77.70;;;;;;5077931;28;20016;-83
2021/09/11 06:35:45;;;;;;;15.80;9.90;;;18.00;77.70;;;;;;5092095;28;20710;-83
2021/09/11 06:38:11;;;;;;;14.48;10.40;;;18.10;77.20;;;;;;5045820;28;20027;-82
2021/09/11 06:40:37;;;;;;;12.43;10.07;;;18.20;76.60;;;;;;5092144;28;20029;-84
2021/09/11 06:43:03;;;;;;;16.73;10.00;;;18.40;76.50;;;;;;5092114;28;20027;-84
2021/09/11 06:45:28;;;;;;;15.10;10.20;;;18.30;75.80;;;;;;5087192;28;20046;-83
2021/09/11 06:47:54;;;;;;;15.73;10.38;;;18.40;76.10;;;;;;5065199;28;20454;-83
2021/09/11 06:50:20;;;;;;;17.92;11.48;;;18.40;75.80;;;;;;5092317;28;20103;-84
2021/09/11 06:52:46;;;;;;;12.57;9.23;;;18.40;76.10;;;;;;5097347;28;20020;-84
2021/09/11 06:55:12;;;;;;;11.40;9.20;;;18.40;75.20;;;;;;5095637;28;20461;-83
2021/09/11 06:57:37;;;;;;;14.93;10.15;;;18.20;75.40;;;;;;5092851;28;20103;-84
2021/09/11 07:00:05;;;;;;;10.10;9.05;;;18.20;76.00;;;;;;5091977;28;20069;-84
2021/09/11 07:02:31;;;;;;;;;;;18.20;75.70;;;;;;5092660;28;20017;-84
2021/09/11 07:04:56;;;;;;;14.38;9.57;;;18.10;76.50;;;;;;5095883;28;19904;-84
2021/09/11 07:07:22;;;;;;;13.77;9.45;;;18.20;76.90;;;;;;5070426;28;20059;-86
2021/09/11 07:09:48;;;;;;;14.98;10.40;;;18.30;76.30;;;;;;5078987;28;20032;-83
2021/09/11 07:12:15;;;;;;;20.73;10.88;;;18.50;76.00;;;;;;5093455;28;20047;-83
2021/09/11 07:14:41;;;;;;;17.55;9.95;;;18.60;75.80;;;;;;5067741;28;20020;-84
2021/09/11 07:17:07;;;;;;;17.55;10.65;;;18.70;75.00;;;;;;5095755;28;20024;-83
2021/09/11 07:19:33;;;;;;;16.42;9.43;;;18.80;74.80;;;;;;5096266;28;20453;-83
2021/09/11 07:21:59;;;;;;;19.60;10.75;;;18.80;74.80;;;;;;5074044;28;20029;-84
2021/09/11 07:24:25;;;;;;;14.55;10.50;;;19.00;74.60;;;;;;5077062;28;20066;-87
2021/09/11 07:26:51;;;;;;;13.13;9.80;;;19.10;74.50;;;;;;5096526;28;20032;-84
2021/09/11 07:29:17;;;;;;;16.67;10.60;;;19.10;73.90;;;;;;5096791;28;20022;-84
2021/09/11 07:31:43;;;;;;;15.45;9.70;;;19.30;73.60;;;;;;5096191;28;20055;-86
2021/09/11 07:34:08;;;;;;;16.85;9.80;;;19.40;73.40;;;;;;5096039;28;20032;-84
2021/09/11 07:36:35;;;;;;;14.95;9.13;;;19.60;73.10;;;;;;5078670;28;20030;-83
2021/09/11 07:39:01;;;;;;;11.85;8.90;;;19.70;72.40;;;;;;5100869;28;20020;-85
2021/09/11 07:41:27;;;;;;;10.45;8.25;;;19.90;71.80;;;;;;5097260;28;20572;-84
2021/09/11 07:43:53;;;;;;;19.85;9.75;;;19.90;70.90;;;;;;5085353;28;20070;-84
2021/09/11 07:46:18;;;;;;;19.13;8.73;;;20.00;71.00;;;;;;5084861;28;20402;-84
2021/09/11 07:48:44;;;;;;;14.73;8.05;;;20.00;70.80;;;;;;5082231;28;20012;-83
2021/09/11 07:51:10;;;;;;;14.50;8.73;;;20.20;70.50;;;;;;5085507;28;20024;-85
2021/09/11 07:53:37;;;;;;;16.25;8.55;;;20.50;69.80;;;;;;5094299;28;20012;-85
2021/09/11 07:56:03;;;;;;;13.27;8.25;;;20.80;69.20;;;;;;5095870;28;20031;-86
2021/09/11 07:58:29;;;;;;;11.88;7.38;;;21.00;67.60;;;;;;5095462;28;20024;-83
2021/09/11 08:00:56;;;;;;;18.20;8.23;;;21.10;66.90;;;;;;5096030;28;20445;-84
2021/09/11 08:03:22;;;;;;;11.17;7.57;;;21.00;66.10;;;;;;5095246;28;20107;-83
2021/09/11 08:05:48;;;;;;;14.48;7.70;;;20.90;66.80;;;;;;5083720;28;20044;-85
2021/09/11 08:08:14;;;;;;;13.20;7.85;;;20.80;66.90;;;;;;5095525;28;20027;-84
2021/09/11 08:10:40;;;;;;;15.55;7.97;;;20.70;66.90;;;;;;5071684;28;20025;-85
2021/09/11 08:13:06;;;;;;;14.48;7.88;;;20.20;67.30;;;;;;5076142;28;20020;-85
2021/09/11 08:15:32;;;;;;;14.77;7.57;;;19.90;69.10;;;;;;5095046;28;20477;-86
2021/09/11 08:18:00;;;;;;;13.60;6.97;;;19.80;69.60;;;;;;5074932;28;20126;-84
2021/09/11 08:20:32;;;;;;;9.73;7.68;;;19.80;69.60;;;;;;5075736;28;20385;-84
2021/09/11 08:23:00;;;;;;;18.10;7.97;;;19.70;70.00;;;;;;5075078;28;20480;-85
2021/09/11 08:25:26;;;;;;;24.00;8.40;;;19.70;70.50;;;;;;5078614;28;20028;-84
2021/09/11 08:27:52;;;;;;;12.90;7.20;;;19.50;69.80;;;;;;5079951;28;20509;-84
2021/09/11 08:30:18;;;;;;;11.52;6.32;;;19.20;70.80;;;;;;5076173;28;20028;-82
2021/09/11 08:32:44;;;;;;;12.57;7.25;;;19.00;71.30;;;;;;5074981;28;20036;-85
2021/09/11 08:35:13;;;;;;;17.55;6.15;;;18.80;72.20;;;;;;5074277;28;20012;-82
2021/09/11 08:37:41;;;;;;;12.00;6.65;;;18.60;73.40;;;;;;5074017;28;20443;-84
2021/09/11 08:40:08;;;;;;;19.08;6.88;;;18.60;73.80;;;;;;5072628;28;20019;-85
2021/09/11 08:42:34;;;;;;;13.95;6.53;;;18.70;73.60;;;;;;5074119;28;20024;-85
2021/09/11 08:45:00;;;;;;;15.82;6.97;;;18.60;74.30;;;;;;5073600;28;20023;-85
2021/09/11 08:47:25;;;;;;;11.20;7.07;;;18.60;74.20;;;;;;5071058;28;20037;-82
2021/09/11 08:49:51;;;;;;;18.05;6.90;;;18.50;75.00;;;;;;5070240;28;20108;-81
2021/09/11 08:52:17;;;;;;;13.75;8.10;;;18.40;75.00;;;;;;5073043;28;20569;-82
2021/09/11 08:54:43;;;;;;;16.33;7.78;;;18.40;75.40;;;;;;5073865;28;20427;-81
2021/09/11 08:57:23;;;;;;;11.00;6.03;;;18.40;75.40;;;;;;5073388;28;20028;-83
2021/09/11 08:59:49;;;;;;;28.63;12.60;;;18.40;75.70;;;;;;5071337;28;20706;-82
2021/09/11 09:02:17;;;;;;;7.18;5.45;;;18.30;75.90;;;;;;5072280;28;20025;-88
2021/09/11 09:04:50;;;;;;;7.90;5.97;;;18.20;75.90;;;;;;5072627;28;20517;-83
2021/09/11 09:07:45;;;;;;;9.35;5.57;;;18.10;76.20;;;;;;5072345;28;20464;-86
2021/09/11 09:10:14;;;;;;;8.93;5.72;;;18.10;76.70;;;;;;5067329;28;20071;-79
2021/09/11 09:12:42;;;;;;;9.52;5.78;;;18.00;77.10;;;;;;5071404;28;20450;-80
2021/09/11 09:15:11;;;;;;;10.82;6.50;;;18.00;77.50;;;;;;5072609;28;20115;-81
2021/09/11 09:17:38;;;;;;;10.60;6.03;;;18.10;77.70;;;;;;5077163;28;20500;-81
2021/09/11 09:20:11;;;;;;;6.85;5.05;;;18.10;77.70;;;;;;5091841;28;20039;-81
2021/09/11 09:22:37;;;;;;;11.57;5.63;;;18.20;77.00;;;;;;5089364;28;20024;-82
2021/09/11 09:25:03;;;;;;;7.18;4.57;;;18.30;76.90;;;;;;5090816;28;20131;-81
2021/09/11 09:27:29;;;;;;;13.98;6.80;;;18.40;76.10;;;;;;5087643;28;20078;-80
2021/09/11 09:30:01;;;;;;;7.00;4.70;;;18.40;76.30;;;;;;5076558;28;20384;-81
2021/09/11 09:32:37;;;;;;;7.70;3.95;;;18.50;75.60;;;;;;5069557;28;20024;-81
2021/09/11 09:35:22;;;;;;;4.78;3.15;;;18.70;75.30;;;;;;5088239;28;20042;-80
2021/09/11 09:37:55;;;;;;;6.53;3.47;;;18.80;74.70;;;;;;5080892;28;20489;-82
2021/09/11 09:40:33;;;;;;;12.43;4.22;;;19.00;74.00;;;;;;5070431;28;20024;-84
2021/09/11 09:43:00;;;;;;;9.23;3.83;;;18.70;73.50;;;;;;5083115;28;20036;-80
2021/09/11 09:45:30;;;;;;;5.45;3.80;;;18.70;74.30;;;;;;5069621;28;20016;-81
2021/09/11 09:48:01;;;;;;;12.68;4.38;;;18.80;73.90;;;;;;5065277;28;20119;-80
2021/09/11 09:50:32;;;;;;;14.68;4.55;;;18.80;73.60;;;;;;5078581;28;20050;-80
2021/09/11 09:52:58;;;;;;;6.65;3.90;;;18.70;73.80;;;;;;5084861;28;20027;-80
2021/09/11 09:55:24;;;;;;;6.68;3.88;;;18.70;74.50;;;;;;5071908;28;20032;-81
2021/09/11 09:57:51;;;;;;;5.55;3.35;;;18.60;75.00;;;;;;5073313;28;20469;-81
2021/09/11 10:00:17;;;;;;;11.45;4.38;;;18.60;75.40;;;;;;5073748;28;20326;-79
2021/09/11 10:02:43;;;;;;;8.43;4.18;;;18.50;76.10;;;;;;5072524;28;20059;-81
2021/09/11 10:05:14;;;;;;;7.20;4.05;;;18.30;77.70;;;;;;5072453;28;20501;-80
2021/09/11 10:08:09;;;;;;;12.40;4.90;;;18.40;77.40;;;;;;5072855;28;20377;-81
2021/09/11 10:10:41;;;;;;;8.80;4.20;;;18.30;77.70;;;;;;5071229;28;20440;-81
2021/09/11 10:13:10;;;;;;;9.50;4.57;;;18.00;78.30;;;;;;5072379;28;20107;-80
2021/09/11 10:15:48;;;;;;;6.97;4.68;;;17.90;79.50;;;;;;5085641;28;20017;-79
2021/09/11 10:18:44;;;;;;;13.93;9.23;;;18.00;79.70;;;;;;5092075;28;20115;-80
2021/09/11 10:21:14;;;;;;;9.13;5.60;;;18.30;79.00;;;;;;5079107;28;20043;-80
2021/09/11 10:23:42;;;;;;;7.22;5.25;;;18.60;78.00;;;;;;5073698;28;20526;-80
2021/09/11 10:26:46;;;;;;;7.35;4.13;;;18.60;77.50;;;;;;5091882;28;20025;-80
2021/09/11 10:29:33;;;;;;;6.65;3.92;;;18.60;77.20;;;;;;5067990;28;20028;-81
2021/09/11 10:32:11;;;;;;;5.40;3.92;;;18.50;76.80;;;;;;5074017;28;20024;-82
2021/09/11 10:35:01;;;;;;;9.82;5.30;;;18.20;77.20;;;;;;5076231;28;20525;-78
2021/09/11 10:37:39;;;;;;;7.63;4.53;;;18.30;77.80;;;;;;5065704;28;20028;-78
2021/09/11 10:40:33;;;;;;;7.20;4.10;;;18.50;77.20;;;;;;5062962;28;20016;-80
2021/09/11 10:43:05;;;;;;;7.05;4.63;;;18.60;76.70;;;;;;5078922;28;20128;-78
2021/09/11 10:45:37;;;;;;;9.25;5.05;;;18.50;76.50;;;;;;5079436;28;20517;-80
2021/09/11 10:48:27;;;;;;;8.40;4.82;;;18.40;77.10;;;;;;5078596;28;20474;-79
2021/09/11 10:50:53;;;;;;;7.90;4.47;;;18.30;77.30;;;;;;5075927;28;20521;-79
2021/09/11 10:53:21;;;;;;;13.10;5.13;;;18.30;77.60;;;;;;5085192;28;20041;-80
2021/09/11 10:55:48;;;;;;;;;;;18.20;77.90;;;;;;5089902;28;20055;-78
2021/09/11 10:58:22;;;;;;;8.95;5.97;;;18.20;78.00;;;;;;5083422;28;19912;-78
2021/09/11 11:01:01;;;;;;;8.63;5.35;;;18.20;78.60;;;;;;5089323;28;20028;-78
2021/09/11 11:03:27;;;;;;;6.20;4.78;;;18.10;78.90;;;;;;5079706;28;20024;-79
2021/09/11 11:06:04;;;;;;;8.90;5.45;;;18.10;79.50;;;;;;5089821;28;20028;-78
2021/09/11 11:08:32;;;;;;;11.77;5.53;;;18.10;79.70;;;;;;5078957;28;20481;-79
2021/09/11 11:11:02;;;;;;;11.88;5.57;;;18.20;79.80;;;;;;5089350;28;20085;-78
2021/09/11 11:13:28;;;;;;;8.40;4.28;;;18.30;80.20;;;;;;5084774;28;20489;-79
2021/09/11 11:15:57;;;;;;;9.07;5.40;;;18.30;79.70;;;;;;5095821;28;20027;-78
2021/09/11 11:18:27;;;;;;;8.13;4.95;;;18.20;80.40;;;;;;5095326;28;20040;-78
2021/09/11 11:20:54;;;;;;;8.88;5.07;;;18.20;80.80;;;;;;5091421;28;20055;-82
2021/09/11 11:23:21;;;;;;;6.30;4.38;;;18.20;80.80;;;;;;5082372;28;20442;-80
2021/09/11 11:25:50;;;;;;;8.55;4.88;;;18.40;80.70;;;;;;5087308;28;20473;-80
2021/09/11 11:28:18;;;;;;;12.70;6.40;;;18.40;80.90;;;;;;5072004;28;20069;-81
2021/09/11 11:30:44;;;;;;;8.75;5.47;;;18.40;81.40;;;;;;5088554;28;20030;-80
2021/09/11 11:33:10;;;;;;;9.83;5.90;;;18.30;80.60;;;;;;5088529;28;20020;-81
2021/09/11 11:35:41;;;;;;;8.05;6.25;;;18.40;81.10;;;;;;5081157;28;20055;-83
2021/09/11 11:38:07;;;;;;;8.75;6.22;;;18.50;81.00;;;;;;5078708;28;20039;-80
2021/09/11 11:40:33;;;;;;;5.88;5.15;;;18.70;80.50;;;;;;5074594;28;20024;-78
2021/09/11 11:43:06;;;;;;;9.30;5.32;;;18.70;80.00;;;;;;5075459;28;20091;-80
2021/09/11 11:45:33;;;;;;;7.38;5.53;;;18.80;79.90;;;;;;5075166;28;20064;-78
2021/09/11 11:48:07;;;;;;;10.82;6.18;;;18.90;79.90;;;;;;5074593;28;20173;-77
2021/09/11 11:50:38;;;;;;;12.25;6.03;;;18.90;80.20;;;;;;5073708;28;20031;-80
2021/09/11 11:53:15;;;;;;;11.93;6.35;;;19.00;80.60;;;;;;5074570;28;20100;-79
2021/09/11 11:55:45;;;;;;;9.77;7.40;;;19.20;79.90;;;;;;5062046;28;20013;-78
2021/09/11 11:58:20;;;;;;;12.20;7.00;;;19.10;79.60;;;;;;5074229;28;20103;-78
2021/09/11 12:00:48;;;;;;;11.85;6.93;;;18.90;80.60;;;;;;5061039;28;20027;-78
2021/09/11 12:03:43;;;;;;;16.73;8.65;;;18.80;80.80;;;;;;5074125;28;20021;-78
2021/09/11 12:06:29;;;;;;;12.65;7.05;;;18.80;81.30;;;;;;5063332;28;20040;-79
2021/09/11 12:09:01;;;;;;;11.38;6.88;;;18.80;81.60;;;;;;5059179;28;20135;-79
2021/09/11 12:11:27;;;;;;;13.43;6.95;;;18.80;81.50;;;;;;5083270;28;20021;-78
2021/09/11 12:13:55;;;;;;;16.58;7.45;;;18.60;82.20;;;;;;5084254;28;20027;-78
2021/09/11 12:16:22;;;;;;;11.73;6.65;;;18.50;83.00;;;;;;5093895;28;20477;-77
2021/09/11 12:18:49;;;;;;;10.27;5.97;;;18.50;83.30;;;;;;5082178;28;20072;-78
2021/09/11 12:21:17;;;;;;;9.93;6.72;;;18.60;83.30;;;;;;5091661;28;20016;-77
2021/09/11 12:23:50;;;;;;;10.70;6.43;;;18.60;83.60;;;;;;5094392;28;20024;-79
2021/09/11 12:26:27;;;;;;;10.48;7.22;;;18.80;83.70;;;;;;5082043;28;20112;-78
2021/09/11 12:29:02;;;;;;;10.18;5.80;;;19.10;83.50;;;;;;5076666;28;20016;-77
2021/09/11 12:31:29;;;;;;;9.68;6.40;;;19.30;82.50;;;;;;5072534;28;20032;-77
2021/09/11 12:34:01;;;;;;;14.57;7.55;;;19.30;81.80;;;;;;5073830;28;20012;-75
2021/09/11 12:36:31;;;;;;;11.18;6.60;;;19.20;82.00;;;;;;5073154;28;20039;-77